New Allen, Kentucky
Current Conditions -  °F | °C
As of 6:35 AM on Thursday 27 Nov 2014 (Local Time) from KPBX Reporting Station
Overcast Overcast  
Wind Chill: 26°   Ceiling: 600
Heat Index: 32°   Visibility: 10mi
Dew Point: 30°   Wind: 6mph
Humidity: 92%   Direction: 330°NNW
Pressure: 30.06"   Gusts: NA
Location:  37.5917°N, 82.646°W
Report Text: KPBX 271135Z AUTO 33005KT 10SM OVC006 00/M01 A3006 RMK AO2 T00001011
Loading
Personal Weather Stations






























Interactive Weather Map New forecast layout! Learn more

10-Day Weather Forecast

Advertisements
Track Severe Weather on mobile